Time;durP1;ratioP1;P1;durP2;ratioP2;P2;SDS_P1;SDS_P2;PMS_P1;PMS_P2;Temp;Humidity;BMP_temperature;BMP_pressure;BME280_temperature;BME280_humidity;BME280_pressure;Samples;Min_cycle;Max_cycle;Signal;HPM_P1;HPM_P2
2021/09/24 00:00:24;;;;;;;3.67;0.80;;;13.90;99.90;;;;;;4144600;28;20201;-75
2021/09/24 00:02:26;;;;;;;2.73;0.70;;;13.90;99.90;;;;;;4141853;28;20216;-75
2021/09/24 00:04:30;;;;;;;3.63;0.80;;;13.90;99.90;;;;;;4141207;28;20212;-75
2021/09/24 00:06:31;;;;;;;2.13;0.80;;;13.90;99.90;;;;;;4146038;28;20919;-75
2021/09/24 00:08:33;;;;;;;3.20;0.80;;;13.90;99.90;;;;;;4143434;28;20222;-75
2021/09/24 00:10:35;;;;;;;2.60;0.70;;;13.90;99.90;;;;;;4140617;28;20228;-75
2021/09/24 00:12:37;;;;;;;5.03;0.90;;;13.90;99.90;;;;;;4142233;28;20228;-78
2021/09/24 00:14:39;;;;;;;3.47;1.10;;;13.90;99.90;;;;;;4145131;28;20261;-75
2021/09/24 00:16:42;;;;;;;3.10;1.07;;;13.90;99.90;;;;;;4145729;28;20258;-75
2021/09/24 00:18:44;;;;;;;1.80;0.80;;;13.90;99.90;;;;;;4138786;28;20260;-76
2021/09/24 00:20:45;;;;;;;3.83;1.10;;;13.90;99.90;;;;;;4146053;28;20268;-75
2021/09/24 00:22:47;;;;;;;5.80;0.90;;;13.90;99.90;;;;;;4146643;28;20766;-75
2021/09/24 00:24:49;;;;;;;6.00;1.00;;;13.90;99.90;;;;;;4146611;28;20263;-75
2021/09/24 00:26:51;;;;;;;3.20;1.10;;;13.90;99.90;;;;;;4139466;28;20586;-75
2021/09/24 00:28:52;;;;;;;6.60;1.20;;;13.90;99.90;;;;;;4147710;28;20629;-75
2021/09/24 00:30:54;;;;;;;5.50;1.03;;;13.90;99.90;;;;;;4147633;28;20371;-76
2021/09/24 00:32:57;;;;;;;4.00;1.00;;;13.90;99.90;;;;;;4147605;28;20263;-75
2021/09/24 00:34:59;;;;;;;3.33;0.90;;;13.90;99.90;;;;;;4145128;28;20291;-75
2021/09/24 00:37:00;;;;;;;5.50;1.40;;;13.90;99.90;;;;;;4147624;28;20215;-75
2021/09/24 00:39:02;;;;;;;2.93;0.90;;;13.90;99.90;;;;;;4147441;28;20235;-76
2021/09/24 00:41:04;;;;;;;4.60;1.10;;;13.90;99.90;;;;;;4147521;28;20219;-75
2021/09/24 00:43:07;;;;;;;3.67;0.97;;;13.90;99.90;;;;;;4137743;28;20240;-75
2021/09/24 00:45:10;;;;;;;8.57;1.40;;;13.90;99.90;;;;;;4131592;28;20213;-77
2021/09/24 00:47:12;;;;;;;7.97;1.43;;;13.90;99.90;;;;;;4133954;28;20213;-75
2021/09/24 00:49:15;;;;;;;2.90;1.00;;;13.90;99.90;;;;;;4146150;28;20216;-75
2021/09/24 00:51:17;;;;;;;2.87;1.00;;;13.90;99.90;;;;;;4142677;28;20232;-77
2021/09/24 00:53:19;;;;;;;3.43;0.93;;;13.90;99.90;;;;;;4146292;28;20646;-77
2021/09/24 00:55:21;;;;;;;3.93;1.00;;;13.90;99.90;;;;;;4145962;28;20201;-76
2021/09/24 00:57:23;;;;;;;3.47;1.07;;;13.90;99.90;;;;;;4146560;28;20742;-75
2021/09/24 00:59:25;;;;;;;5.43;1.20;;;13.90;99.90;;;;;;4142193;28;20215;-75
2021/09/24 01:01:28;;;;;;;6.77;1.47;;;13.90;99.90;;;;;;4144339;28;20201;-76
2021/09/24 01:03:30;;;;;;;5.13;1.30;;;13.90;99.90;;;;;;4147004;28;20240;-75
2021/09/24 01:05:33;;;;;;;2.30;1.00;;;13.80;99.90;;;;;;4147574;28;20213;-75
2021/09/24 01:07:35;;;;;;;6.50;1.30;;;13.80;99.90;;;;;;4147548;28;20208;-75
2021/09/24 01:09:37;;;;;;;4.93;1.03;;;13.80;99.90;;;;;;4143943;28;20664;-77
2021/09/24 01:11:39;;;;;;;4.30;1.40;;;13.70;99.90;;;;;;4144645;28;20236;-77
2021/09/24 01:13:41;;;;;;;2.93;0.97;;;13.70;99.90;;;;;;4137035;28;20239;-75
2021/09/24 01:15:42;;;;;;;5.80;1.10;;;13.70;99.90;;;;;;4142146;28;20230;-74
2021/09/24 01:17:47;;;;;;;2.60;1.00;;;13.70;99.90;;;;;;4141533;28;20212;-75
2021/09/24 01:19:49;;;;;;;5.33;1.20;;;13.70;99.90;;;;;;4141552;28;20270;-75
2021/09/24 01:21:52;;;;;;;7.90;1.20;;;13.60;99.90;;;;;;4138585;28;20212;-76
2021/09/24 01:23:54;;;;;;;5.30;1.00;;;13.60;99.90;;;;;;4140134;28;20276;-75
2021/09/24 01:25:55;;;;;;;6.60;1.40;;;13.60;99.90;;;;;;4140098;28;20235;-75
2021/09/24 01:27:57;;;;;;;5.07;1.23;;;13.60;99.90;;;;;;4138185;28;20209;-75
2021/09/24 01:29:59;;;;;;;5.43;1.20;;;13.50;99.90;;;;;;4143169;28;20238;-75
2021/09/24 01:32:01;;;;;;;2.57;1.03;;;13.50;99.90;;;;;;4143275;28;20625;-76
2021/09/24 01:34:02;;;;;;;5.47;1.20;;;13.50;99.90;;;;;;4143373;28;20774;-77
2021/09/24 01:36:05;;;;;;;6.30;1.40;;;13.40;99.90;;;;;;4145146;28;20606;-75
2021/09/24 01:38:08;;;;;;;6.40;1.07;;;13.40;99.90;;;;;;4142175;28;20274;-76
2021/09/24 01:40:11;;;;;;;4.60;0.93;;;13.40;99.90;;;;;;4142890;28;20208;-75
2021/09/24 01:42:13;;;;;;;6.80;1.23;;;13.30;99.90;;;;;;4139699;28;20266;-75
2021/09/24 01:44:15;;;;;;;6.23;1.30;;;13.30;99.90;;;;;;4145529;28;20700;-75
2021/09/24 01:46:17;;;;;;;5.53;1.40;;;13.30;99.90;;;;;;4145984;28;20212;-75
2021/09/24 01:48:18;;;;;;;4.57;1.27;;;13.30;99.90;;;;;;4146901;28;20210;-75
2021/09/24 01:50:20;;;;;;;3.07;1.10;;;13.30;99.90;;;;;;4140066;28;20726;-76
2021/09/24 01:52:22;;;;;;;5.43;1.90;;;13.30;99.90;;;;;;4133037;28;20826;-75
2021/09/24 01:54:25;;;;;;;6.83;1.47;;;13.30;99.90;;;;;;4146638;28;20702;-77
2021/09/24 01:56:27;;;;;;;6.50;1.10;;;13.30;99.90;;;;;;4147030;28;20211;-75
2021/09/24 01:58:28;;;;;;;3.70;1.10;;;13.30;99.90;;;;;;4146571;28;20222;-77
2021/09/24 02:00:30;;;;;;;7.13;1.03;;;13.20;99.90;;;;;;4142223;28;20212;-75
2021/09/24 02:02:31;;;;;;;7.03;1.20;;;13.20;99.90;;;;;;4146708;28;20212;-75
2021/09/24 02:04:33;;;;;;;2.67;0.90;;;13.20;99.90;;;;;;4146938;28;20208;-76
2021/09/24 02:06:35;;;;;;;3.67;1.33;;;13.20;99.90;;;;;;4145367;28;20236;-76
2021/09/24 02:08:37;;;;;;;6.10;1.27;;;13.20;99.90;;;;;;4146610;28;20258;-77
2021/09/24 02:10:40;;;;;;;5.40;1.27;;;13.10;99.90;;;;;;4146778;28;20228;-76
2021/09/24 02:12:41;;;;;;;7.33;1.60;;;13.10;99.90;;;;;;4146821;28;20239;-75
2021/09/24 02:14:43;;;;;;;7.63;1.40;;;13.10;99.90;;;;;;4144041;28;20691;-75
2021/09/24 02:16:45;;;;;;;4.97;1.30;;;13.10;99.90;;;;;;4144781;28;20211;-77
2021/09/24 02:18:47;;;;;;;3.43;1.00;;;13.10;99.90;;;;;;4145236;28;20200;-75
2021/09/24 02:20:48;;;;;;;5.23;1.37;;;13.10;99.90;;;;;;4144457;28;20215;-75
2021/09/24 02:22:50;;;;;;;5.70;1.40;;;13.00;99.90;;;;;;4142238;28;20635;-75
2021/09/24 02:24:52;;;;;;;4.37;1.20;;;13.00;99.90;;;;;;4134790;28;20207;-75
2021/09/24 02:26:56;;;;;;;4.27;1.13;;;13.00;99.90;;;;;;4146223;28;20215;-76
2021/09/24 02:28:57;;;;;;;5.47;1.30;;;13.00;99.90;;;;;;4146580;28;20671;-76
2021/09/24 02:30:59;;;;;;;5.67;1.07;;;13.00;99.90;;;;;;4146374;28;20223;-77
2021/09/24 02:33:01;;;;;;;4.40;1.27;;;13.00;99.90;;;;;;4141932;28;20236;-75
2021/09/24 02:35:03;;;;;;;8.47;1.50;;;13.00;99.90;;;;;;4130558;28;20205;-75
2021/09/24 02:37:05;;;;;;;10.17;1.77;;;13.00;99.90;;;;;;4142049;28;20640;-75
2021/09/24 02:39:08;;;;;;;8.37;1.30;;;13.00;99.90;;;;;;4146710;28;20207;-75
2021/09/24 02:41:11;;;;;;;6.67;1.27;;;13.00;99.90;;;;;;4146086;28;20219;-75
2021/09/24 02:43:14;;;;;;;6.97;1.23;;;13.00;99.90;;;;;;4139189;28;20270;-79
2021/09/24 02:45:16;;;;;;;3.70;1.20;;;13.10;99.90;;;;;;4149560;28;20238;-76
2021/09/24 02:47:18;;;;;;;1.57;0.70;;;13.10;99.90;;;;;;4149623;28;20208;-75
2021/09/24 02:49:19;;;;;;;8.60;1.30;;;13.10;99.90;;;;;;4149285;28;20716;-75
2021/09/24 02:51:21;;;;;;;7.53;1.40;;;13.10;99.90;;;;;;4149379;28;20238;-75
2021/09/24 02:53:23;;;;;;;7.97;1.50;;;13.10;99.90;;;;;;4141484;28;20630;-75
2021/09/24 02:55:25;;;;;;;7.30;1.50;;;13.10;99.90;;;;;;4149612;28;20698;-75
2021/09/24 02:57:26;;;;;;;3.30;1.20;;;13.10;99.90;;;;;;4149590;28;20220;-75
2021/09/24 02:59:29;;;;;;;4.20;1.00;;;13.20;99.90;;;;;;4148813;28;20749;-76
2021/09/24 03:01:31;;;;;;;6.30;1.17;;;13.20;99.90;;;;;;4138592;28;20213;-75
2021/09/24 03:03:33;;;;;;;7.00;1.30;;;13.20;99.90;;;;;;4149167;28;20316;-75
2021/09/24 03:05:35;;;;;;;4.87;1.10;;;13.20;99.90;;;;;;4149356;28;20211;-75
2021/09/24 03:07:37;;;;;;;5.30;1.60;;;13.20;99.90;;;;;;4149108;28;20580;-75
2021/09/24 03:09:39;;;;;;;5.30;1.20;;;13.20;99.90;;;;;;4147928;28;20847;-75
2021/09/24 03:11:41;;;;;;;6.17;1.47;;;13.20;99.90;;;;;;4149349;28;20232;-77
2021/09/24 03:13:44;;;;;;;4.87;0.87;;;13.20;99.90;;;;;;4149199;28;20227;-77
2021/09/24 03:15:47;;;;;;;3.40;1.20;;;13.20;99.90;;;;;;4149137;28;20208;-75
2021/09/24 03:17:49;;;;;;;5.90;1.30;;;13.20;99.90;;;;;;4149019;28;20204;-78
2021/09/24 03:19:50;;;;;;;5.03;1.20;;;13.20;99.90;;;;;;4147709;28;20208;-75
2021/09/24 03:21:52;;;;;;;6.07;1.57;;;13.20;99.90;;;;;;4149069;28;20212;-75
2021/09/24 03:23:54;;;;;;;9.10;1.20;;;13.20;99.90;;;;;;4148731;28;20235;-75
2021/09/24 03:25:55;;;;;;;3.10;1.10;;;13.20;99.90;;;;;;4148980;28;20226;-75
2021/09/24 03:27:57;;;;;;;6.97;1.17;;;13.20;99.90;;;;;;4148782;28;20670;-75
2021/09/24 03:29:59;;;;;;;3.67;1.07;;;13.20;99.90;;;;;;4144693;28;20213;-76
2021/09/24 03:32:02;;;;;;;3.57;1.00;;;13.20;99.90;;;;;;4148819;28;20262;-75
2021/09/24 03:34:04;;;;;;;5.63;1.00;;;13.20;99.90;;;;;;4148980;28;20764;-75
2021/09/24 03:36:06;;;;;;;5.77;1.10;;;13.20;99.90;;;;;;4148623;28;20286;-75
2021/09/24 03:38:07;;;;;;;7.97;1.40;;;13.20;99.90;;;;;;4148680;28;20570;-75
2021/09/24 03:40:10;;;;;;;5.57;1.17;;;13.20;99.90;;;;;;4143420;28;20208;-77
2021/09/24 03:42:12;;;;;;;4.07;1.30;;;13.20;99.90;;;;;;4148788;28;20478;-75
2021/09/24 03:44:14;;;;;;;8.43;1.40;;;13.20;99.90;;;;;;4148313;28;20293;-75
2021/09/24 03:46:16;;;;;;;5.40;1.00;;;13.20;99.90;;;;;;4148718;28;20729;-75
2021/09/24 03:48:19;;;;;;;4.93;0.80;;;13.20;99.90;;;;;;4146973;28;20219;-75
2021/09/24 03:50:21;;;;;;;5.60;1.40;;;13.20;99.90;;;;;;4147924;28;20211;-75
2021/09/24 03:52:22;;;;;;;6.47;1.10;;;13.20;99.90;;;;;;4148276;28;20263;-75
2021/09/24 03:54:24;;;;;;;6.23;1.20;;;13.20;99.90;;;;;;4148434;28;20264;-75
2021/09/24 03:56:26;;;;;;;6.17;1.30;;;13.20;99.90;;;;;;4147762;28;20649;-76
2021/09/24 03:58:28;;;;;;;4.70;1.70;;;13.20;99.90;;;;;;4138584;28;20212;-76
2021/09/24 04:00:30;;;;;;;5.00;1.30;;;13.20;99.90;;;;;;4147966;28;20208;-76
2021/09/24 04:02:32;;;;;;;3.80;1.07;;;13.10;99.90;;;;;;4148217;28;20207;-76
2021/09/24 04:04:35;;;;;;;10.13;1.33;;;13.10;99.90;;;;;;4147934;28;20204;-75
2021/09/24 04:06:36;;;;;;;6.93;1.30;;;13.10;99.90;;;;;;4145151;28;20217;-75
2021/09/24 04:08:38;;;;;;;4.53;1.00;;;13.10;99.90;;;;;;4144996;28;20204;-76
2021/09/24 04:10:40;;;;;;;6.07;1.23;;;13.10;99.90;;;;;;4147509;28;20633;-75
2021/09/24 04:12:41;;;;;;;9.37;1.50;;;13.00;99.90;;;;;;4148177;28;20598;-75
2021/09/24 04:14:43;;;;;;;5.00;1.80;;;13.00;99.90;;;;;;4132323;28;20291;-75
2021/09/24 04:16:45;;;;;;;5.60;1.10;;;13.00;99.90;;;;;;4131968;28;20743;-75
2021/09/24 04:18:46;;;;;;;7.97;1.67;;;13.00;99.90;;;;;;4140046;28;20204;-76
2021/09/24 04:20:50;;;;;;;7.90;1.93;;;13.00;99.90;;;;;;4147670;28;20254;-76
2021/09/24 04:22:51;;;;;;;5.90;1.63;;;12.90;99.90;;;;;;4148225;28;20582;-75
2021/09/24 04:24:53;;;;;;;4.83;1.50;;;12.90;99.90;;;;;;4140252;28;20262;-75
2021/09/24 04:26:55;;;;;;;7.37;1.30;;;12.90;99.90;;;;;;4147072;28;20270;-75
2021/09/24 04:28:57;;;;;;;3.80;1.30;;;12.90;99.90;;;;;;4138367;28;20220;-76
2021/09/24 04:30:59;;;;;;;5.87;1.70;;;12.90;99.90;;;;;;4147219;28;20207;-76
2021/09/24 04:33:00;;;;;;;4.47;1.10;;;12.80;99.90;;;;;;4147438;28;20231;-76
2021/09/24 04:35:03;;;;;;;5.10;1.47;;;12.80;99.90;;;;;;4148123;28;20673;-75
2021/09/24 04:37:06;;;;;;;4.97;1.63;;;12.80;99.90;;;;;;4147693;28;20214;-77
2021/09/24 04:39:08;;;;;;;4.03;1.30;;;12.80;99.90;;;;;;4145402;28;20273;-75
2021/09/24 04:41:10;;;;;;;3.87;0.90;;;12.80;99.90;;;;;;4147023;28;20722;-75
2021/09/24 04:43:11;;;;;;;7.53;1.37;;;12.80;99.90;;;;;;4146821;28;20281;-75
2021/09/24 04:45:15;;;;;;;9.00;1.90;;;12.70;99.90;;;;;;4147534;28;20207;-75
2021/09/24 04:47:17;;;;;;;5.50;1.57;;;12.80;99.90;;;;;;4145146;28;20215;-76
2021/09/24 04:49:19;;;;;;;7.43;1.30;;;12.70;99.90;;;;;;4147516;28;20599;-76
2021/09/24 04:51:21;;;;;;;4.97;1.20;;;12.70;99.90;;;;;;4142984;28;20219;-76
2021/09/24 04:53:24;;;;;;;7.30;1.70;;;12.70;99.90;;;;;;4144694;28;20277;-76
2021/09/24 04:55:26;;;;;;;5.87;1.50;;;12.70;99.90;;;;;;4143797;28;20218;-75
2021/09/24 04:57:28;;;;;;;6.80;1.50;;;12.70;99.90;;;;;;4147524;28;20286;-76
2021/09/24 04:59:30;;;;;;;5.93;1.43;;;12.70;99.90;;;;;;4146971;28;20214;-76
2021/09/24 05:01:31;;;;;;;4.60;1.20;;;12.60;99.90;;;;;;4144548;28;20218;-77
2021/09/24 05:03:33;;;;;;;6.80;1.40;;;12.60;99.90;;;;;;4147751;28;20286;-77
2021/09/24 05:05:35;;;;;;;5.77;1.43;;;12.60;99.90;;;;;;4141363;28;20211;-75
2021/09/24 05:07:37;;;;;;;10.87;2.07;;;12.50;99.90;;;;;;4145978;28;20203;-76
2021/09/24 05:09:40;;;;;;;6.33;1.40;;;12.50;99.90;;;;;;4140900;28;20220;-75
2021/09/24 05:11:42;;;;;;;2.90;1.30;;;12.50;99.90;;;;;;4146003;28;20281;-75
2021/09/24 05:13:44;;;;;;;4.50;1.30;;;12.50;99.90;;;;;;4146896;28;20234;-76
2021/09/24 05:15:46;;;;;;;5.70;1.23;;;12.40;99.90;;;;;;4147009;28;20215;-75
2021/09/24 05:17:48;;;;;;;8.77;2.43;;;12.40;99.90;;;;;;4144918;28;20667;-74
2021/09/24 05:19:50;;;;;;;6.40;1.70;;;12.40;99.90;;;;;;4146118;28;20210;-76
2021/09/24 05:21:51;;;;;;;7.83;1.83;;;12.30;99.90;;;;;;4147527;28;20284;-75
2021/09/24 05:23:53;;;;;;;8.10;1.70;;;12.30;99.90;;;;;;4146887;28;20226;-75
2021/09/24 05:25:56;;;;;;;4.77;1.67;;;12.30;99.90;;;;;;4143632;28;20258;-75
2021/09/24 05:27:58;;;;;;;5.23;1.50;;;12.30;99.90;;;;;;4131673;28;20219;-77
2021/09/24 05:30:00;;;;;;;4.93;1.50;;;12.30;99.90;;;;;;4142678;28;20245;-75
2021/09/24 05:32:01;;;;;;;4.63;1.47;;;12.30;99.90;;;;;;4142731;28;20227;-76
2021/09/24 05:34:04;;;;;;;5.83;1.40;;;12.30;99.90;;;;;;4139364;28;20704;-77
2021/09/24 05:36:08;;;;;;;5.43;1.40;;;12.30;99.90;;;;;;4142948;28;20669;-79
2021/09/24 05:38:09;;;;;;;7.93;1.87;;;12.30;99.90;;;;;;4142794;28;20300;-74
2021/09/24 05:40:13;;;;;;;4.20;1.60;;;12.30;99.90;;;;;;4139716;28;20256;-80
2021/09/24 05:42:16;;;;;;;6.60;1.50;;;12.30;99.90;;;;;;4142186;28;20268;-76
2021/09/24 05:44:18;;;;;;;5.13;1.83;;;12.30;99.90;;;;;;4151266;23;20243;-84
2021/09/24 05:46:21;;;;;;;6.20;1.70;;;12.30;99.90;;;;;;4126507;28;20233;-80
2021/09/24 05:48:22;;;;;;;4.13;1.60;;;12.30;99.90;;;;;;4125671;28;20243;-80
2021/09/24 05:50:26;;;;;;;12.00;1.57;;;12.30;99.90;;;;;;4126513;28;20274;-80
2021/09/24 05:52:28;;;;;;;4.60;1.47;;;12.30;99.90;;;;;;4124723;28;20269;-79
2021/09/24 05:54:30;;;;;;;4.13;1.70;;;12.30;99.90;;;;;;4126435;28;20785;-79
2021/09/24 05:56:32;;;;;;;5.70;1.60;;;12.20;99.90;;;;;;4126670;28;20735;-80
2021/09/24 05:58:35;;;;;;;4.17;1.57;;;12.20;99.90;;;;;;4128452;28;20211;-80
2021/09/24 06:00:37;;;;;;;5.30;1.57;;;12.20;99.90;;;;;;4129382;28;20670;-80
2021/09/24 06:02:39;;;;;;;4.67;1.40;;;12.20;99.90;;;;;;4132859;28;20210;-80
2021/09/24 06:04:41;;;;;;;4.67;1.43;;;12.20;99.90;;;;;;4131911;28;20215;-80
2021/09/24 06:06:43;;;;;;;4.23;1.43;;;12.20;99.90;;;;;;4131900;28;20556;-80
2021/09/24 06:08:49;;;;;;;5.03;1.47;;;12.20;99.90;;;;;;4131644;28;20223;-80
2021/09/24 06:10:51;;;;;;;2.97;1.40;;;12.20;99.90;;;;;;4130852;28;20243;-80
2021/09/24 06:12:53;;;;;;;4.30;1.90;;;12.20;99.90;;;;;;4131843;28;20634;-79
2021/09/24 06:14:57;;;;;;;2.70;1.53;;;12.30;99.90;;;;;;4131032;28;20257;-80
2021/09/24 06:16:58;;;;;;;3.73;1.60;;;12.30;99.90;;;;;;4118835;28;20227;-80
2021/09/24 06:19:00;;;;;;;3.17;1.60;;;12.30;99.90;;;;;;4120005;28;20228;-80
2021/09/24 06:21:03;;;;;;;4.97;1.70;;;12.30;99.90;;;;;;4130106;28;20216;-80
2021/09/24 06:23:04;;;;;;;7.37;1.97;;;12.30;99.90;;;;;;4130127;28;20314;-80
2021/09/24 06:25:07;;;;;;;6.17;1.80;;;12.30;99.90;;;;;;4124422;28;20219;-80
2021/09/24 06:27:14;;;;;;;5.77;2.00;;;12.30;99.90;;;;;;4130470;28;20205;-80
2021/09/24 06:29:16;;;;;;;5.77;1.90;;;12.40;99.90;;;;;;4129862;28;20222;-80
2021/09/24 06:31:19;;;;;;;5.27;1.70;;;12.40;99.90;;;;;;4130107;28;20212;-80
2021/09/24 06:33:21;;;;;;;4.40;1.67;;;12.40;99.90;;;;;;4128947;28;20239;-80
2021/09/24 06:35:23;;;;;;;4.47;1.90;;;12.50;99.90;;;;;;4129811;28;20220;-80
2021/09/24 06:37:24;;;;;;;4.07;1.70;;;12.50;99.90;;;;;;4130101;28;20218;-80
2021/09/24 06:39:26;;;;;;;3.77;2.10;;;12.50;99.90;;;;;;4129314;28;20270;-80
2021/09/24 06:41:28;;;;;;;5.33;1.90;;;12.50;99.90;;;;;;4129822;28;20498;-80
2021/09/24 06:43:30;;;;;;;6.80;1.80;;;12.60;99.90;;;;;;4130164;28;20812;-80
2021/09/24 06:45:32;;;;;;;7.27;2.07;;;12.60;99.90;;;;;;4130440;28;20674;-80
2021/09/24 06:47:37;;;;;;;6.07;1.67;;;12.60;99.90;;;;;;4126925;28;20204;-80
2021/09/24 06:49:40;;;;;;;5.20;1.40;;;12.70;99.90;;;;;;4130126;28;20211;-80
2021/09/24 06:51:41;;;;;;;3.03;1.37;;;12.70;99.90;;;;;;4129262;28;20281;-80
2021/09/24 06:53:43;;;;;;;11.00;1.80;;;12.70;99.90;;;;;;4130581;28;20628;-80
2021/09/24 06:55:45;;;;;;;6.00;1.80;;;12.80;99.90;;;;;;4130566;28;20237;-80
2021/09/24 06:57:47;;;;;;;4.50;1.67;;;12.80;99.90;;;;;;4131226;28;20215;-80
2021/09/24 06:59:48;;;;;;;4.53;1.70;;;12.90;99.90;;;;;;4130588;28;20212;-80
2021/09/24 07:01:50;;;;;;;6.07;1.60;;;12.90;99.90;;;;;;4130920;28;20302;-80
2021/09/24 07:03:53;;;;;;;6.10;1.70;;;12.90;99.90;;;;;;4130939;28;20652;-80
2021/09/24 07:05:55;;;;;;;5.30;2.13;;;13.00;99.90;;;;;;4128287;28;20209;-80
2021/09/24 07:07:57;;;;;;;3.70;1.37;;;13.00;99.90;;;;;;4131448;28;20227;-80
2021/09/24 07:09:58;;;;;;;7.30;1.60;;;13.10;99.90;;;;;;4128076;28;20204;-78
2021/09/24 07:12:00;;;;;;;4.07;1.50;;;13.20;99.90;;;;;;4129168;28;20245;-80
2021/09/24 07:14:08;;;;;;;4.23;1.40;;;13.20;99.90;;;;;;4131130;28;20220;-80
2021/09/24 07:16:10;;;;;;;6.30;1.70;;;13.30;99.90;;;;;;4129188;28;20223;-80
2021/09/24 07:18:12;;;;;;;4.00;1.70;;;13.30;99.90;;;;;;4130065;28;20258;-80
2021/09/24 07:20:15;;;;;;;5.03;1.63;;;13.40;99.90;;;;;;4131643;28;20239;-80
2021/09/24 07:22:17;;;;;;;7.50;2.00;;;13.40;99.90;;;;;;4132002;28;21120;-80
2021/09/24 07:24:18;;;;;;;3.10;1.50;;;13.50;99.90;;;;;;4127461;28;20240;-80
2021/09/24 07:26:20;;;;;;;4.77;1.50;;;13.50;99.90;;;;;;4119023;28;20217;-80
2021/09/24 07:28:22;;;;;;;3.50;1.50;;;13.60;99.90;;;;;;4127840;28;20231;-80
2021/09/24 07:30:24;;;;;;;5.13;1.53;;;13.60;99.90;;;;;;4130818;28;20604;-80
2021/09/24 07:32:26;;;;;;;4.33;1.57;;;13.70;99.90;;;;;;4128664;28;20684;-80
2021/09/24 07:34:28;;;;;;;6.73;2.20;;;13.80;99.90;;;;;;4131800;28;20236;-80
2021/09/24 07:36:31;;;;;;;4.80;1.60;;;13.90;99.90;;;;;;4131982;28;20225;-80
2021/09/24 07:38:33;;;;;;;4.33;2.00;;;13.90;99.90;;;;;;4129764;28;20739;-80
2021/09/24 07:40:34;;;;;;;3.80;1.30;;;14.00;99.90;;;;;;4130067;28;20212;-79
2021/09/24 07:42:36;;;;;;;4.77;1.50;;;14.00;99.90;;;;;;4130901;28;20549;-80
2021/09/24 07:44:38;;;;;;;4.43;1.40;;;14.10;99.90;;;;;;4131329;28;20217;-80
2021/09/24 07:46:40;;;;;;;3.03;1.37;;;14.10;99.90;;;;;;4116850;28;20237;-80
2021/09/24 07:48:42;;;;;;;3.40;1.40;;;14.20;99.90;;;;;;4116917;28;20217;-80
2021/09/24 07:50:44;;;;;;;4.03;1.40;;;14.20;99.90;;;;;;4115196;28;20209;-80
2021/09/24 07:52:47;;;;;;;4.13;1.30;;;14.30;99.90;;;;;;4115146;28;20237;-80
2021/09/24 07:54:48;;;;;;;4.20;1.30;;;14.30;99.90;;;;;;4116001;28;20211;-80
2021/09/24 07:56:51;;;;;;;5.50;1.70;;;14.40;99.90;;;;;;4131216;28;20677;-80
2021/09/24 07:58:53;;;;;;;5.03;1.40;;;14.50;99.90;;;;;;4130755;28;20330;-79
2021/09/24 08:00:55;;;;;;;7.37;1.30;;;14.50;99.90;;;;;;4130601;28;20292;-80
2021/09/24 08:02:57;;;;;;;6.83;1.40;;;14.60;99.90;;;;;;4131016;28;20231;-79
2021/09/24 08:04:58;;;;;;;3.87;1.33;;;14.70;99.90;;;;;;4130165;28;20262;-80
2021/09/24 08:07:01;;;;;;;4.40;1.30;;;14.70;99.90;;;;;;4131107;28;20567;-79
2021/09/24 08:09:04;;;;;;;2.30;1.10;;;14.80;99.90;;;;;;4130014;28;20232;-79
2021/09/24 08:11:06;;;;;;;2.53;1.20;;;14.90;99.90;;;;;;4130435;28;20216;-79
2021/09/24 08:13:07;;;;;;;3.63;1.20;;;14.90;99.90;;;;;;4130459;28;20244;-80
2021/09/24 08:15:10;;;;;;;3.40;1.10;;;14.90;99.90;;;;;;4127576;28;20241;-80
2021/09/24 08:17:12;;;;;;;4.27;1.30;;;15.00;99.90;;;;;;4131382;28;20273;-80
2021/09/24 08:19:13;;;;;;;5.60;1.27;;;15.00;99.90;;;;;;4131056;28;20211;-79
2021/09/24 08:21:15;;;;;;;2.70;1.23;;;15.00;99.90;;;;;;4132490;28;20713;-79
2021/09/24 08:23:17;;;;;;;2.77;1.00;;;15.10;99.90;;;;;;4139281;28;20224;-80
2021/09/24 08:25:21;;;;;;;4.63;1.07;;;15.20;99.90;;;;;;4146083;28;20202;-80
2021/09/24 08:27:23;;;;;;;3.77;1.07;;;15.30;99.90;;;;;;4141985;28;20191;-80
2021/09/24 08:29:25;;;;;;;5.00;1.10;;;15.40;99.90;;;;;;4128722;28;20275;-80
2021/09/24 08:31:26;;;;;;;2.07;1.00;;;15.40;99.90;;;;;;4132867;28;20234;-80
2021/09/24 08:33:28;;;;;;;2.10;0.93;;;15.50;99.90;;;;;;4132191;28;20350;-79
2021/09/24 08:35:31;;;;;;;2.97;0.90;;;15.50;99.90;;;;;;4132102;28;20603;-79
2021/09/24 08:37:33;;;;;;;3.13;1.00;;;15.60;99.90;;;;;;4129740;28;20246;-80
2021/09/24 08:39:35;;;;;;;1.63;0.70;;;15.70;99.90;;;;;;4128806;28;20239;-80
2021/09/24 08:41:38;;;;;;;2.27;0.77;;;15.70;99.90;;;;;;4128186;28;20643;-80
2021/09/24 08:43:41;;;;;;;3.30;0.70;;;15.80;99.90;;;;;;4128604;28;20527;-80
2021/09/24 08:45:43;;;;;;;1.93;0.70;;;15.80;99.90;;;;;;4129204;28;20675;-80
2021/09/24 08:47:45;;;;;;;2.97;0.77;;;15.90;99.90;;;;;;4127567;28;20716;-80
2021/09/24 08:49:48;;;;;;;2.37;0.80;;;15.90;99.90;;;;;;4126230;28;20267;-79
2021/09/24 08:51:50;;;;;;;3.80;1.00;;;15.90;99.90;;;;;;4125974;28;20208;-80
2021/09/24 08:53:51;;;;;;;2.40;1.33;;;16.00;99.90;;;;;;4128898;28;20284;-79
2021/09/24 08:55:53;;;;;;;2.60;0.60;;;16.10;99.90;;;;;;4126488;28;20217;-80
2021/09/24 08:57:57;;;;;;;2.13;0.50;;;16.20;99.90;;;;;;4128127;28;20215;-80
2021/09/24 08:59:59;;;;;;;1.73;0.90;;;16.30;99.90;;;;;;4128472;28;20267;-80
2021/09/24 09:02:02;;;;;;;2.47;0.90;;;16.40;99.90;;;;;;4128413;28;20205;-80
2021/09/24 09:04:04;;;;;;;2.27;0.70;;;16.50;99.90;;;;;;4122658;28;20233;-80
2021/09/24 09:06:06;;;;;;;1.50;0.70;;;16.60;99.90;;;;;;4129730;28;20251;-80
2021/09/24 09:08:17;;;;;;;1.80;0.70;;;16.70;99.90;;;;;;4128825;28;20267;-79
2021/09/24 09:10:18;;;;;;;1.30;0.60;;;16.90;99.90;;;;;;4126971;28;20257;-79
2021/09/24 09:12:23;;;;;;;1.93;0.60;;;17.00;99.90;;;;;;4127823;28;20216;-79
2021/09/24 09:14:27;;;;;;;1.00;0.60;;;17.00;99.90;;;;;;4128554;28;20625;-80
2021/09/24 09:16:30;;;;;;;1.17;0.53;;;17.10;99.90;;;;;;4129098;28;20603;-80
2021/09/24 09:18:36;;;;;;;1.70;0.77;;;17.20;99.90;;;;;;4128030;28;20220;-80
2021/09/24 09:20:38;;;;;;;1.47;0.70;;;17.20;99.90;;;;;;4123138;28;20592;-79
2021/09/24 09:22:41;;;;;;;2.20;0.60;;;17.30;99.90;;;;;;4117145;28;20734;-80
2021/09/24 09:24:44;;;;;;;0.80;0.57;;;17.30;99.90;;;;;;4128896;28;20218;-80
2021/09/24 09:26:46;;;;;;;1.90;0.67;;;17.40;99.90;;;;;;4128650;28;20248;-80
2021/09/24 09:28:54;;;;;;;3.50;0.90;;;17.40;99.90;;;;;;4123726;28;20217;-79
2021/09/24 09:30:58;;;;;;;1.93;0.70;;;17.40;99.90;;;;;;4096393;29;20199;-80
2021/09/24 09:33:04;;;;;;;9.33;1.00;;;17.40;99.90;;;;;;4101988;28;20239;-79
2021/09/24 09:35:07;;;;;;;2.00;1.00;;;17.40;99.90;;;;;;4112921;28;20213;-79
2021/09/24 09:37:16;;;;;;;2.37;0.73;;;17.30;99.90;;;;;;4112387;28;20946;-79
2021/09/24 09:39:18;;;;;;;4.00;0.70;;;17.30;99.90;;;;;;4095396;29;20273;-78
2021/09/24 09:41:21;;;;;;;1.43;0.60;;;17.30;99.90;;;;;;4094907;29;20637;-77
2021/09/24 09:43:30;;;;;;;1.73;0.60;;;17.30;99.90;;;;;;4108318;28;20268;-78
2021/09/24 09:45:32;;;;;;;2.83;0.77;;;17.30;99.90;;;;;;4110720;28;20213;-78
2021/09/24 09:47:37;;;;;;;1.97;0.80;;;17.40;99.90;;;;;;4110373;28;20222;-78
2021/09/24 09:49:39;;;;;;;2.30;1.10;;;17.40;99.90;;;;;;4110583;28;20640;-78
2021/09/24 09:51:44;;;;;;;2.40;0.70;;;17.50;99.90;;;;;;4111046;28;20223;-79
2021/09/24 09:53:50;;;;;;;2.33;0.70;;;17.60;99.90;;;;;;4113356;28;20227;-78
2021/09/24 09:55:54;;;;;;;1.77;0.60;;;17.70;99.90;;;;;;4112364;28;20237;-77
2021/09/24 09:57:59;;;;;;;1.57;0.90;;;17.70;99.90;;;;;;4109762;28;20215;-77
2021/09/24 10:00:01;;;;;;;1.77;0.80;;;17.70;99.90;;;;;;4112364;28;20207;-77
2021/09/24 10:02:11;;;;;;;1.17;0.73;;;17.70;99.90;;;;;;4112192;28;20209;-78
2021/09/24 10:04:14;;;;;;;0.83;0.57;;;17.70;99.90;;;;;;4113282;28;20234;-77
2021/09/24 10:06:25;;;;;;;2.77;0.70;;;17.60;99.90;;;;;;4113557;28;20242;-77
2021/09/24 10:08:30;;;;;;;1.43;0.50;;;17.60;99.90;;;;;;4112278;28;20280;-78
2021/09/24 10:10:31;;;;;;;4.47;0.60;;;17.60;99.90;;;;;;4113385;28;20212;-77
2021/09/24 10:12:34;;;;;;;2.17;0.77;;;17.60;99.90;;;;;;4113064;28;20253;-77
2021/09/24 10:14:35;;;;;;;3.07;1.10;;;17.70;99.90;;;;;;4113692;28;20645;-78
2021/09/24 10:16:43;;;;;;;0.77;0.60;;;17.70;99.90;;;;;;4113864;28;20342;-77
2021/09/24 10:18:45;;;;;;;2.73;0.67;;;17.80;99.90;;;;;;4113381;28;20207;-78
2021/09/24 10:20:52;;;;;;;1.00;0.50;;;17.90;99.60;;;;;;4111519;28;20226;-77
2021/09/24 10:22:53;;;;;;;1.00;0.70;;;17.90;99.80;;;;;;4113389;28;20234;-78
2021/09/24 10:24:56;;;;;;;2.07;0.57;;;18.00;99.40;;;;;;4113392;28;20601;-77
2021/09/24 10:27:00;;;;;;;3.13;0.80;;;18.00;99.30;;;;;;4110532;28;20281;-78
2021/09/24 10:29:05;;;;;;;2.83;0.90;;;17.90;99.40;;;;;;4108575;28;20265;-77
2021/09/24 10:31:14;;;;;;;1.20;0.60;;;17.90;99.80;;;;;;4112958;28;20212;-77
2021/09/24 10:33:18;;;;;;;1.53;0.73;;;17.90;99.60;;;;;;4112752;28;20258;-77
2021/09/24 10:35:19;;;;;;;1.93;0.50;;;17.80;99.40;;;;;;4112647;28;20210;-77